createdAt,value
2023-02-23T00:01:42.332Z,15.18
2023-02-23T00:04:09.366Z,15.18
2023-02-23T00:06:36.528Z,15.19
2023-02-23T00:09:22.799Z,15.19
2023-02-23T00:11:50.832Z,15.19
2023-02-23T00:14:17.476Z,15.17
2023-02-23T00:16:45.556Z,15.17
2023-02-23T00:19:14.056Z,15.15
2023-02-23T00:21:41.675Z,15.16
2023-02-23T00:24:16.812Z,15.16
2023-02-23T00:26:43.434Z,15.14
2023-02-23T00:29:17.362Z,15.14
2023-02-23T00:31:45.190Z,15.13
2023-02-23T00:34:13.625Z,15.12
2023-02-23T00:36:40.882Z,15.13
2023-02-23T00:39:21.429Z,15.12
2023-02-23T00:41:49.826Z,15.10
2023-02-23T00:44:16.609Z,15.12
2023-02-23T00:46:44.561Z,15.10
2023-02-23T00:49:12.932Z,15.11
2023-02-23T00:51:39.539Z,15.08
2023-02-23T00:54:07.083Z,15.07
2023-02-23T00:56:33.848Z,15.07
2023-02-23T00:59:00.438Z,15.10
2023-02-23T01:01:27.234Z,15.08
2023-02-23T01:03:53.860Z,15.07
2023-02-23T01:06:20.829Z,15.07
2023-02-23T01:08:49.516Z,15.08
2023-02-23T01:11:21.506Z,15.10
2023-02-23T01:13:50.362Z,15.11
2023-02-23T01:16:19.004Z,15.12
2023-02-23T01:18:46.178Z,15.11
2023-02-23T01:21:17.897Z,15.12
2023-02-23T01:23:44.941Z,15.12
2023-02-23T01:26:23.117Z,15.12
2023-02-23T01:29:10.942Z,15.13
2023-02-23T01:31:43.844Z,15.13
2023-02-23T01:34:12.233Z,15.12
2023-02-23T01:36:40.960Z,15.12
2023-02-23T01:39:12.124Z,15.12
2023-02-23T01:41:38.978Z,15.11
2023-02-23T01:44:12.729Z,15.12
2023-02-23T01:46:41.319Z,15.12
2023-02-23T01:49:11.645Z,15.12
2023-02-23T01:51:44.310Z,15.13
2023-02-23T01:54:15.997Z,15.12
2023-02-23T01:56:45.902Z,15.11
2023-02-23T01:59:13.648Z,15.10
2023-02-23T02:01:40.794Z,15.11
2023-02-23T02:04:08.531Z,15.11
2023-02-23T02:06:36.454Z,15.10
2023-02-23T02:09:16.690Z,15.08
2023-02-23T02:11:46.394Z,15.10
2023-02-23T02:14:14.018Z,15.07
2023-02-23T02:17:04.621Z,15.07
2023-02-23T02:19:49.279Z,15.07
2023-02-23T02:22:37.124Z,15.07
2023-02-23T02:25:15.434Z,15.06
2023-02-23T02:28:04.303Z,15.05
2023-02-23T02:31:08.179Z,15.03
2023-02-23T02:34:11.800Z,15.03
2023-02-23T02:36:47.478Z,15.03
2023-02-23T02:39:35.229Z,15.03
2023-02-23T02:42:13.833Z,15.04
2023-02-23T02:44:43.352Z,15.06
2023-02-23T02:47:14.542Z,15.06
2023-02-23T02:50:20.563Z,15.07
2023-02-23T02:52:51.866Z,15.07
2023-02-23T02:55:27.643Z,15.07
2023-02-23T02:57:57.924Z,15.08
2023-02-23T03:00:53.832Z,15.07
2023-02-23T03:03:54.045Z,15.07
2023-02-23T03:06:43.788Z,15.07
2023-02-23T03:09:54.042Z,15.08
2023-02-23T03:13:23.601Z,15.07
2023-02-23T03:16:22.985Z,15.07
2023-02-23T03:19:33.275Z,15.06
2023-02-23T03:22:39.608Z,15.06
2023-02-23T03:25:29.395Z,15.05
2023-02-23T03:28:27.844Z,15.04
2023-02-23T03:31:39.916Z,15.05
2023-02-23T03:34:33.318Z,15.05
2023-02-23T03:37:28.641Z,15.03
2023-02-23T03:40:29.142Z,15.03
2023-02-23T03:43:16.155Z,15.03
2023-02-23T03:46:04.474Z,15.03
2023-02-23T03:48:50.671Z,15.03
2023-02-23T03:51:37.339Z,15.03
2023-02-23T03:54:50.965Z,15.02
2023-02-23T03:57:38.418Z,15.02
2023-02-23T04:00:28.068Z,15.02
2023-02-23T04:03:13.579Z,15.00
2023-02-23T04:05:59.821Z,15.02
2023-02-23T04:08:51.303Z,14.99
2023-02-23T04:11:59.572Z,15.01
2023-02-23T04:14:49.720Z,15.02
2023-02-23T04:17:16.816Z,15.03
2023-02-23T04:19:51.697Z,15.02
2023-02-23T04:22:18.337Z,15.03
2023-02-23T04:24:46.194Z,15.03
2023-02-23T04:27:13.649Z,15.04
2023-02-23T04:29:40.362Z,15.05
2023-02-23T04:32:08.065Z,15.04
2023-02-23T04:34:34.701Z,15.03
2023-02-23T04:37:01.273Z,15.03
2023-02-23T04:39:27.877Z,15.03
2023-02-23T04:41:54.463Z,15.03
2023-02-23T04:44:21.106Z,15.02
2023-02-23T04:46:47.621Z,15.01
2023-02-23T04:49:14.189Z,15.02
2023-02-23T04:51:40.845Z,15.01
2023-02-23T04:54:07.458Z,15.01
2023-02-23T04:56:34.062Z,15.01
2023-02-23T04:59:00.704Z,14.99
2023-02-23T05:01:28.240Z,14.98
2023-02-23T05:03:55.797Z,14.98
2023-02-23T05:06:22.381Z,14.98
2023-02-23T05:08:48.984Z,14.99
2023-02-23T05:11:15.547Z,14.98
2023-02-23T05:13:42.115Z,14.97
2023-02-23T05:16:08.999Z,14.98
2023-02-23T05:18:35.611Z,14.97
2023-02-23T05:21:04.262Z,14.97
2023-02-23T05:23:31.230Z,14.95
2023-02-23T05:26:09.250Z,14.97
2023-02-23T05:28:37.205Z,14.96
2023-02-23T05:31:04.418Z,14.96
2023-02-23T05:33:32.138Z,14.95
2023-02-23T05:35:58.977Z,14.97
2023-02-23T05:38:27.251Z,14.97
2023-02-23T05:40:53.836Z,14.97
2023-02-23T05:43:20.390Z,14.97
2023-02-23T05:45:46.974Z,14.98
2023-02-23T05:48:14.033Z,14.99
2023-02-23T05:50:40.710Z,15.00
2023-02-23T05:53:07.288Z,14.99
2023-02-23T05:55:33.929Z,15.00
2023-02-23T05:58:00.503Z,15.01
2023-02-23T06:00:27.091Z,15.00
2023-02-23T06:02:54.308Z,15.01
2023-02-23T06:05:21.011Z,15.02
2023-02-23T06:07:48.311Z,15.02
2023-02-23T06:10:14.875Z,15.00
2023-02-23T06:12:41.501Z,14.98
2023-02-23T06:15:08.495Z,14.99
2023-02-23T06:17:36.193Z,14.98
2023-02-23T06:20:04.935Z,14.98
2023-02-23T06:22:31.653Z,14.98
2023-02-23T06:24:58.222Z,14.98
2023-02-23T06:27:24.834Z,14.98
2023-02-23T06:29:51.424Z,14.98
2023-02-23T06:32:18.129Z,14.97
2023-02-23T06:34:44.850Z,14.97
2023-02-23T06:37:12.091Z,14.97
2023-02-23T06:39:38.680Z,14.95
2023-02-23T06:42:05.274Z,14.96
2023-02-23T06:44:35.336Z,14.95
2023-02-23T06:47:05.689Z,14.95
2023-02-23T06:49:32.542Z,14.94
2023-02-23T06:51:59.238Z,14.96
2023-02-23T06:54:26.538Z,14.94
2023-02-23T06:56:54.760Z,14.94
2023-02-23T06:59:21.643Z,14.93
2023-02-23T07:01:48.225Z,14.93
2023-02-23T07:04:16.728Z,14.92
2023-02-23T07:06:43.539Z,14.93
2023-02-23T07:09:10.218Z,14.93
2023-02-23T07:11:36.893Z,14.93
2023-02-23T07:14:03.460Z,14.93
2023-02-23T07:16:30.069Z,14.94
2023-02-23T07:18:56.755Z,14.97
2023-02-23T07:21:23.397Z,14.97
2023-02-23T07:23:50.056Z,14.98
2023-02-23T07:26:17.163Z,14.99
2023-02-23T07:28:44.461Z,14.99
2023-02-23T07:31:11.149Z,15.01
2023-02-23T07:33:37.762Z,15.02
2023-02-23T07:36:04.592Z,15.02
2023-02-23T07:38:31.343Z,15.02
2023-02-23T07:40:57.923Z,15.02
2023-02-23T07:43:24.755Z,15.01
2023-02-23T07:45:51.717Z,15.00
2023-02-23T07:48:19.012Z,15.02
2023-02-23T07:50:45.675Z,15.02
2023-02-23T07:53:12.531Z,15.02
2023-02-23T07:55:40.241Z,15.01
2023-02-23T07:58:07.743Z,15.00
2023-02-23T08:00:36.556Z,15.01
2023-02-23T08:03:03.130Z,15.00
2023-02-23T08:05:29.781Z,14.99
2023-02-23T08:07:57.902Z,15.00
2023-02-23T08:10:24.701Z,15.00
2023-02-23T08:12:51.327Z,14.99
2023-02-23T08:15:18.179Z,14.99
2023-02-23T08:17:44.729Z,14.99
2023-02-23T08:20:11.674Z,14.98
2023-02-23T08:22:48.939Z,14.98
2023-02-23T08:25:16.429Z,14.99
2023-02-23T08:27:43.005Z,14.98
2023-02-23T08:30:11.414Z,14.98
2023-02-23T08:32:38.061Z,14.98
2023-02-23T08:35:05.483Z,14.98
2023-02-23T08:37:32.291Z,14.97
2023-02-23T08:40:00.735Z,14.96
2023-02-23T08:42:28.181Z,14.97
2023-02-23T08:44:54.940Z,14.97
2023-02-23T08:47:23.589Z,14.97
2023-02-23T08:49:50.890Z,14.99
2023-02-23T08:52:17.874Z,15.01
2023-02-23T08:54:44.452Z,15.01
2023-02-23T08:57:12.597Z,15.01
2023-02-23T08:59:41.172Z,15.02
2023-02-23T09:02:12.058Z,15.02
2023-02-23T09:04:38.738Z,15.02
2023-02-23T09:07:05.401Z,15.03
2023-02-23T09:09:32.575Z,15.04
2023-02-23T09:12:00.075Z,15.02
2023-02-23T09:14:28.040Z,15.05
2023-02-23T09:16:54.617Z,15.05
2023-02-23T09:19:21.267Z,15.06
2023-02-23T09:21:47.852Z,15.05
2023-02-23T09:24:14.437Z,15.06
2023-02-23T09:26:44.950Z,15.06
2023-02-23T09:29:12.378Z,15.05
2023-02-23T09:31:39.103Z,15.06
2023-02-23T09:34:05.747Z,15.05
2023-02-23T09:36:32.411Z,15.05
2023-02-23T09:38:59.002Z,15.06
2023-02-23T09:41:25.546Z,15.05
2023-02-23T09:44:01.241Z,15.05
2023-02-23T09:46:39.863Z,15.03
2023-02-23T09:49:13.808Z,15.04
2023-02-23T09:51:42.200Z,15.04
2023-02-23T09:54:11.803Z,15.04
2023-02-23T09:56:45.074Z,15.02
2023-02-23T09:59:15.606Z,15.04
2023-02-23T10:01:48.441Z,15.02
2023-02-23T10:04:29.002Z,15.02
2023-02-23T10:06:59.073Z,15.03
2023-02-23T10:09:48.357Z,15.03
2023-02-23T10:12:32.285Z,15.03
2023-02-23T10:15:20.561Z,15.05
2023-02-23T10:18:08.790Z,15.05
2023-02-23T10:20:41.509Z,15.04
2023-02-23T10:23:15.641Z,15.06
2023-02-23T10:25:45.683Z,15.06
2023-02-23T10:28:20.242Z,15.08
2023-02-23T10:30:47.269Z,15.10
2023-02-23T10:33:26.955Z,15.11
2023-02-23T10:36:12.595Z,15.12
2023-02-23T10:38:40.098Z,15.13
2023-02-23T10:41:07.218Z,15.13
2023-02-23T10:43:33.819Z,15.13
2023-02-23T10:46:00.411Z,15.14
2023-02-23T10:48:32.211Z,15.14
2023-02-23T10:51:03.154Z,15.13
2023-02-23T10:53:37.661Z,15.13
2023-02-23T10:56:15.967Z,15.12
2023-02-23T10:58:56.498Z,15.12
2023-02-23T11:02:00.847Z,15.12
2023-02-23T11:04:30.824Z,15.14
2023-02-23T11:07:09.997Z,15.16
2023-02-23T11:09:46.709Z,15.17
2023-02-23T11:12:23.077Z,15.18
2023-02-23T11:14:51.685Z,15.15
2023-02-23T11:17:33.435Z,15.16
2023-02-23T11:20:02.828Z,15.15
2023-02-23T11:22:35.378Z,15.15
2023-02-23T11:25:06.737Z,15.16
2023-02-23T11:27:34.029Z,15.15
2023-02-23T11:30:06.199Z,15.15
2023-02-23T11:32:38.841Z,15.16
2023-02-23T11:35:21.080Z,15.16
2023-02-23T11:37:48.836Z,15.15
2023-02-23T11:40:25.820Z,15.14
2023-02-23T11:43:09.929Z,15.12
2023-02-23T11:45:46.212Z,15.12
2023-02-23T11:48:28.914Z,15.12
2023-02-23T11:50:56.208Z,15.14
2023-02-23T11:53:34.242Z,15.13
2023-02-23T11:56:07.933Z,15.13
2023-02-23T11:58:39.272Z,15.15
2023-02-23T12:01:14.319Z,15.16
2023-02-23T12:03:47.813Z,15.17
2023-02-23T12:06:31.755Z,15.17
2023-02-23T12:09:04.610Z,15.18
2023-02-23T12:11:34.757Z,15.17
2023-02-23T12:14:19.067Z,15.16
2023-02-23T12:16:50.242Z,15.17
2023-02-23T12:19:31.450Z,15.16
2023-02-23T12:22:34.442Z,15.16
2023-02-23T12:25:05.436Z,15.16
2023-02-23T12:28:19.502Z,15.16
2023-02-23T12:30:54.917Z,15.17
2023-02-23T12:33:30.092Z,15.16
2023-02-23T12:36:04.118Z,15.19
2023-02-23T12:38:58.088Z,15.18
2023-02-23T12:41:36.897Z,15.18
2023-02-23T12:44:15.368Z,15.18
2023-02-23T12:46:49.377Z,15.18
2023-02-23T12:49:36.245Z,15.19
2023-02-23T12:52:11.123Z,15.18
2023-02-23T12:54:37.797Z,15.19
2023-02-23T12:57:35.470Z,15.18
2023-02-23T13:00:23.993Z,15.20
2023-02-23T13:03:15.631Z,15.18
2023-02-23T13:05:52.101Z,15.19
2023-02-23T13:08:34.552Z,15.18
2023-02-23T13:11:15.987Z,15.18
2023-02-23T13:14:04.759Z,15.17
2023-02-23T13:16:37.687Z,15.19
2023-02-23T13:19:23.786Z,15.18
2023-02-23T13:21:59.231Z,15.18
2023-02-23T13:24:37.064Z,15.20
2023-02-23T13:27:16.236Z,15.21
2023-02-23T13:29:44.657Z,15.23
2023-02-23T13:32:14.004Z,15.24
2023-02-23T13:35:00.760Z,15.24
2023-02-23T13:37:34.911Z,15.25
2023-02-23T13:40:23.156Z,15.24
2023-02-23T13:42:58.875Z,15.25
2023-02-23T13:45:58.415Z,15.24
2023-02-23T13:48:44.435Z,15.25
2023-02-23T13:51:49.545Z,15.25
2023-02-23T13:54:18.365Z,15.25
2023-02-23T13:56:55.079Z,15.27
2023-02-23T13:59:30.366Z,15.24
2023-02-23T14:01:57.851Z,15.25
2023-02-23T14:04:27.259Z,15.21
2023-02-23T14:06:59.747Z,15.22
2023-02-23T14:09:36.834Z,15.21
2023-02-23T14:12:24.994Z,15.21
2023-02-23T14:14:51.722Z,15.20
2023-02-23T14:17:19.183Z,15.18
2023-02-23T14:20:07.796Z,15.19
2023-02-23T14:22:35.122Z,15.18
2023-02-23T14:25:32.715Z,15.17
2023-02-23T14:28:06.795Z,15.17
2023-02-23T14:30:51.041Z,15.16
2023-02-23T14:33:46.963Z,15.16
2023-02-23T14:36:22.276Z,15.16
2023-02-23T14:39:00.915Z,15.15
2023-02-23T14:41:50.033Z,15.15
2023-02-23T14:44:29.613Z,15.14
2023-02-23T14:47:08.305Z,15.14
2023-02-23T14:49:39.027Z,15.14
2023-02-23T14:52:08.590Z,15.15
2023-02-23T14:54:37.866Z,15.14
2023-02-23T14:57:07.660Z,15.14
2023-02-23T14:59:42.063Z,15.15
2023-02-23T15:02:18.187Z,15.16
2023-02-23T15:04:45.443Z,15.17
2023-02-23T15:07:32.194Z,15.18
2023-02-23T15:10:00.114Z,15.18
2023-02-23T15:12:34.705Z,15.19
2023-02-23T15:15:03.177Z,15.19
2023-02-23T15:17:32.298Z,15.19
2023-02-23T15:20:19.905Z,15.19
2023-02-23T15:22:49.247Z,15.17
2023-02-23T15:25:24.009Z,15.17
2023-02-23T15:27:51.939Z,15.17
2023-02-23T15:30:21.828Z,15.16
2023-02-23T15:32:48.817Z,15.15
2023-02-23T15:35:15.746Z,15.16
2023-02-23T15:37:45.377Z,15.16
2023-02-23T15:40:21.725Z,15.15
2023-02-23T15:42:54.203Z,15.15
2023-02-23T15:45:30.121Z,15.14
2023-02-23T15:47:58.981Z,15.14
2023-02-23T15:50:36.470Z,15.13
2023-02-23T15:53:13.452Z,15.13
2023-02-23T15:55:42.775Z,15.12
2023-02-23T15:58:30.387Z,15.12
2023-02-23T16:01:05.902Z,15.12
2023-02-23T16:03:35.695Z,15.12
2023-02-23T16:06:06.618Z,15.11
2023-02-23T16:08:35.922Z,15.10
2023-02-23T16:11:14.759Z,15.11
2023-02-23T16:13:45.130Z,15.09
2023-02-23T16:16:19.177Z,15.11
2023-02-23T16:18:48.236Z,15.08
2023-02-23T16:21:17.954Z,15.10
2023-02-23T16:23:47.791Z,15.07
2023-02-23T16:26:36.586Z,15.08
2023-02-23T16:29:04.779Z,15.07
2023-02-23T16:31:55.551Z,15.08
2023-02-23T16:34:35.669Z,15.07
2023-02-23T16:37:17.706Z,15.12
2023-02-23T16:39:45.019Z,15.13
2023-02-23T16:42:25.661Z,15.15
2023-02-23T16:44:52.319Z,15.15
2023-02-23T16:47:32.920Z,15.15
2023-02-23T16:50:04.875Z,15.16
2023-02-23T16:52:37.067Z,15.16
2023-02-23T16:55:04.772Z,15.14
2023-02-23T16:57:39.243Z,15.16
2023-02-23T17:00:15.434Z,15.16
2023-02-23T17:02:42.131Z,15.14
2023-02-23T17:05:19.321Z,15.13
2023-02-23T17:07:46.585Z,15.13
2023-02-23T17:10:26.005Z,15.13
2023-02-23T17:12:54.453Z,15.12
2023-02-23T17:15:23.217Z,15.12
2023-02-23T17:17:49.899Z,15.12
2023-02-23T17:20:17.545Z,15.11
2023-02-23T17:22:44.512Z,15.11
2023-02-23T17:25:11.536Z,15.08
2023-02-23T17:27:38.110Z,15.09
2023-02-23T17:30:06.257Z,15.08
2023-02-23T17:32:33.446Z,15.08
2023-02-23T17:35:00.798Z,15.07
2023-02-23T17:37:27.445Z,15.08
2023-02-23T17:39:54.061Z,15.07
2023-02-23T17:42:20.700Z,15.06
2023-02-23T17:44:47.284Z,15.07
2023-02-23T17:47:13.898Z,15.06
2023-02-23T17:49:40.493Z,15.06
2023-02-23T17:52:07.092Z,15.06
2023-02-23T17:54:33.668Z,15.07
2023-02-23T17:57:00.212Z,15.06
2023-02-23T17:59:26.780Z,15.06
2023-02-23T18:01:53.371Z,15.06
2023-02-23T18:04:20.044Z,15.06
2023-02-23T18:06:46.623Z,15.07
2023-02-23T18:09:14.502Z,15.07
2023-02-23T18:11:41.212Z,15.08
2023-02-23T18:14:09.526Z,15.08
2023-02-23T18:16:36.187Z,15.10
2023-02-23T18:19:02.837Z,15.10
2023-02-23T18:21:29.812Z,15.10
2023-02-23T18:23:56.560Z,15.10
2023-02-23T18:26:24.153Z,15.11
2023-02-23T18:28:51.268Z,15.12
2023-02-23T18:31:21.462Z,15.12
2023-02-23T18:33:52.907Z,15.12
2023-02-23T18:36:28.154Z,15.14
2023-02-23T18:38:56.250Z,15.14
2023-02-23T18:41:23.280Z,15.13
2023-02-23T18:43:50.101Z,15.13
2023-02-23T18:46:16.988Z,15.14
2023-02-23T18:48:43.893Z,15.13
2023-02-23T18:51:14.284Z,15.14
2023-02-23T18:53:41.643Z,15.13
2023-02-23T18:56:10.956Z,15.13
2023-02-23T18:58:37.730Z,15.13
2023-02-23T19:01:19.185Z,15.12
2023-02-23T19:03:47.365Z,15.11
2023-02-23T19:06:16.167Z,15.12
2023-02-23T19:08:54.008Z,15.11
2023-02-23T19:11:24.111Z,15.10
2023-02-23T19:13:52.124Z,15.10
2023-02-23T19:16:19.549Z,15.08
2023-02-23T19:18:47.414Z,15.10
2023-02-23T19:21:15.492Z,15.10
2023-02-23T19:23:42.087Z,15.10
2023-02-23T19:26:08.710Z,15.08
2023-02-23T19:28:35.334Z,15.07
2023-02-23T19:31:07.232Z,15.10
2023-02-23T19:33:34.454Z,15.09
2023-02-23T19:36:05.317Z,15.08
2023-02-23T19:38:32.205Z,15.10
2023-02-23T19:40:58.805Z,15.10
2023-02-23T19:43:25.494Z,15.12
2023-02-23T19:45:52.179Z,15.13
2023-02-23T19:48:18.920Z,15.14
2023-02-23T19:50:47.942Z,15.15
2023-02-23T19:53:15.606Z,15.15
2023-02-23T19:55:42.317Z,15.14
2023-02-23T19:58:09.412Z,15.15
2023-02-23T20:00:36.027Z,15.14
2023-02-23T20:03:06.366Z,15.15
2023-02-23T20:05:42.326Z,15.15
2023-02-23T20:08:10.046Z,15.14
2023-02-23T20:10:41.463Z,15.14
2023-02-23T20:13:08.293Z,15.15
2023-02-23T20:15:35.006Z,15.14
2023-02-23T20:18:01.576Z,15.15
2023-02-23T20:20:29.257Z,15.15
2023-02-23T20:22:56.208Z,15.15
2023-02-23T20:25:23.394Z,15.15
2023-02-23T20:27:50.662Z,15.15
2023-02-23T20:30:17.825Z,15.14
2023-02-23T20:32:45.121Z,15.17
2023-02-23T20:35:16.599Z,15.15
2023-02-23T20:37:43.564Z,15.14
2023-02-23T20:40:23.238Z,15.14
2023-02-23T20:42:51.066Z,15.14
2023-02-23T20:45:20.974Z,15.14
2023-02-23T20:47:51.906Z,15.14
2023-02-23T20:50:20.112Z,15.13
2023-02-23T20:52:46.814Z,15.13
2023-02-23T20:55:19.227Z,15.14
2023-02-23T20:57:47.244Z,15.13
2023-02-23T21:00:20.265Z,15.12
2023-02-23T21:02:46.828Z,15.12
2023-02-23T21:05:13.406Z,15.11
2023-02-23T21:07:40.295Z,15.11
2023-02-23T21:10:08.548Z,15.11
2023-02-23T21:12:35.677Z,15.12
2023-02-23T21:15:04.608Z,15.13
2023-02-23T21:17:31.236Z,15.12
2023-02-23T21:19:57.789Z,15.14
2023-02-23T21:22:24.379Z,15.15
2023-02-23T21:24:50.931Z,15.16
2023-02-23T21:27:17.528Z,15.16
2023-02-23T21:29:44.125Z,15.16
2023-02-23T21:32:13.996Z,15.16
2023-02-23T21:34:40.933Z,15.16
2023-02-23T21:37:07.524Z,15.17
2023-02-23T21:39:34.173Z,15.16
2023-02-23T21:42:01.229Z,15.17
2023-02-23T21:44:28.159Z,15.16
2023-02-23T21:46:54.819Z,15.17
2023-02-23T21:49:21.383Z,15.16
2023-02-23T21:51:48.005Z,15.14
2023-02-23T21:54:15.738Z,15.16
2023-02-23T21:56:42.377Z,15.14
2023-02-23T21:59:10.649Z,15.15
2023-02-23T22:01:39.154Z,15.16
2023-02-23T22:04:07.062Z,15.14
2023-02-23T22:06:40.505Z,15.15
2023-02-23T22:09:11.518Z,15.15
2023-02-23T22:11:42.210Z,15.16
2023-02-23T22:14:10.518Z,15.14
2023-02-23T22:16:40.647Z,15.14
2023-02-23T22:19:07.311Z,15.14
2023-02-23T22:21:38.898Z,15.15
2023-02-23T22:24:06.542Z,15.16
2023-02-23T22:26:34.586Z,15.15
2023-02-23T22:29:01.455Z,15.14
2023-02-23T22:31:28.597Z,15.15
2023-02-23T22:33:55.269Z,15.15
2023-02-23T22:36:22.840Z,15.15
2023-02-23T22:38:49.458Z,15.15
2023-02-23T22:41:16.092Z,15.14
2023-02-23T22:43:46.654Z,15.14
2023-02-23T22:46:14.768Z,15.13
2023-02-23T22:48:44.920Z,15.14
2023-02-23T22:51:12.929Z,15.14
2023-02-23T22:53:39.585Z,15.14
2023-02-23T22:56:06.810Z,15.14
2023-02-23T22:58:33.664Z,15.17
2023-02-23T23:01:06.402Z,15.15
2023-02-23T23:03:41.225Z,15.17
2023-02-23T23:06:12.165Z,15.17
2023-02-23T23:08:43.261Z,15.18
2023-02-23T23:11:15.185Z,15.18
2023-02-23T23:13:45.084Z,15.17
2023-02-23T23:16:28.891Z,15.16
2023-02-23T23:19:03.412Z,15.17
2023-02-23T23:21:32.201Z,15.16
2023-02-23T23:24:01.453Z,15.16
2023-02-23T23:26:29.173Z,15.16
2023-02-23T23:28:57.908Z,15.16
2023-02-23T23:31:28.300Z,15.15
2023-02-23T23:34:10.194Z,15.13
2023-02-23T23:36:42.949Z,15.14
2023-02-23T23:39:12.109Z,15.14
2023-02-23T23:41:39.635Z,15.13
2023-02-23T23:44:06.745Z,15.13
2023-02-23T23:46:37.600Z,15.12
2023-02-23T23:49:08.058Z,15.14
2023-02-23T23:51:39.667Z,15.13
2023-02-23T23:54:08.056Z,15.13
2023-02-23T23:56:37.378Z,15.11
2023-02-23T23:59:12.873Z,15.13
